Time;durP1;ratioP1;P1;durP2;ratioP2;P2;SDS_P1;SDS_P2;PMS_P1;PMS_P2;Temp;Humidity;BMP_temperature;BMP_pressure;BME280_temperature;BME280_humidity;BME280_pressure;Samples;Min_cycle;Max_cycle;Signal;HPM_P1;HPM_P2
2022/03/07 00:01:58;;;;;;;16.47;12.07;;;-3276.10;61.50;;;;;;6251037;28;20251;-59
2022/03/07 00:04:59;;;;;;;17.17;11.60;;;-3276.00;61.40;;;;;;6251129;28;20209;-59
2022/03/07 00:07:59;;;;;;;17.00;11.83;;;-3275.90;62.00;;;;;;6250377;28;20189;-60
2022/03/07 00:11:02;;;;;;;15.43;11.07;;;-3276.00;62.10;;;;;;6250040;28;20209;-59
2022/03/07 00:14:03;;;;;;;22.17;11.93;;;-3275.90;62.00;;;;;;6267839;28;20190;-59
2022/03/07 00:17:03;;;;;;;18.23;11.93;;;-3275.80;62.10;;;;;;6244590;28;20213;-58
2022/03/07 00:20:05;;;;;;;16.63;10.97;;;-3275.80;61.60;;;;;;6216790;28;20236;-59
2022/03/07 00:23:06;;;;;;;16.77;10.77;;;-3275.90;61.60;;;;;;6250594;28;20179;-60
2022/03/07 00:26:07;;;;;;;21.20;12.83;;;-3275.80;61.60;;;;;;6226252;28;20245;-60
2022/03/07 00:29:08;;;;;;;18.57;11.33;;;-3275.70;62.10;;;;;;6232116;28;20229;-59
2022/03/07 00:32:11;;;;;;;18.43;12.37;;;-3275.70;62.30;;;;;;6266962;28;20194;-60
2022/03/07 00:35:12;;;;;;;18.23;12.87;;;-3275.70;62.70;;;;;;6202967;28;20249;-60
2022/03/07 00:38:13;;;;;;;20.87;13.10;;;-3275.60;63.00;;;;;;6209143;28;20225;-60
2022/03/07 00:41:15;;;;;;;20.33;12.60;;;-3275.50;63.70;;;;;;6240438;28;20191;-60
2022/03/07 00:44:16;;;;;;;17.60;11.43;;;-3275.50;63.40;;;;;;6266508;28;20187;-60
2022/03/07 00:47:16;;;;;;;16.37;10.90;;;-3275.50;63.50;;;;;;6216787;28;20208;-60
2022/03/07 00:50:17;;;;;;;16.93;10.37;;;-3275.50;63.50;;;;;;6199653;28;20203;-60
2022/03/07 00:53:21;;;;;;;19.40;13.27;;;-3275.40;63.40;;;;;;6241166;28;20200;-59
2022/03/07 00:56:22;;;;;;;17.97;12.03;;;-3275.30;63.80;;;;;;6225024;28;20269;-59
2022/03/07 00:59:24;;;;;;;18.87;12.30;;;-3275.40;63.70;;;;;;6222759;28;20223;-59
2022/03/07 01:02:25;;;;;;;18.93;12.60;;;-3275.40;63.80;;;;;;6249396;28;20249;-60
2022/03/07 01:05:26;;;;;;;19.33;12.77;;;-3275.40;63.70;;;;;;6265762;28;20193;-60
2022/03/07 01:08:27;;;;;;;15.70;11.90;;;-3275.20;64.40;;;;;;6227360;28;20199;-60
2022/03/07 01:11:28;;;;;;;19.47;13.27;;;-3275.20;64.50;;;;;;6196779;28;20201;-59
2022/03/07 01:14:29;;;;;;;22.87;14.03;;;-3275.20;65.00;;;;;;6265979;28;20194;-59
2022/03/07 01:17:29;;;;;;;17.73;11.50;;;-3275.20;65.30;;;;;;6260827;28;20265;-59
2022/03/07 01:20:31;;;;;;;21.80;12.93;;;-3275.10;65.30;;;;;;6248756;28;20317;-59
2022/03/07 01:23:32;;;;;;;18.97;11.40;;;-3275.10;65.10;;;;;;6240760;28;20244;-59
2022/03/07 01:26:33;;;;;;;16.60;11.33;;;-3275.10;65.10;;;;;;6244200;28;20194;-60
2022/03/07 01:29:35;;;;;;;18.17;12.30;;;-3275.00;65.20;;;;;;6248528;28;20188;-59
2022/03/07 01:32:37;;;;;;;17.93;11.37;;;-3275.00;65.30;;;;;;6232005;28;20195;-60
2022/03/07 01:35:39;;;;;;;18.87;12.07;;;-3275.00;65.30;;;;;;6265162;28;20188;-60
2022/03/07 01:38:40;;;;;;;16.10;10.90;;;-3275.00;65.30;;;;;;6248273;28;20219;-60
2022/03/07 01:41:43;;;;;;;19.03;12.37;;;-3274.90;65.30;;;;;;6232483;28;20278;-59
2022/03/07 01:44:44;;;;;;;17.23;11.90;;;-3275.00;65.50;;;;;;6232540;28;20235;-59
2022/03/07 01:47:46;;;;;;;20.30;12.50;;;-3274.90;65.50;;;;;;6265968;28;20319;-59
2022/03/07 01:50:48;;;;;;;15.70;10.97;;;-3274.90;65.70;;;;;;6224282;28;20199;-59
2022/03/07 01:53:49;;;;;;;18.57;11.70;;;-3274.90;66.00;;;;;;6248275;28;20188;-60
2022/03/07 01:56:53;;;;;;;19.83;11.97;;;-3274.80;66.30;;;;;;6266165;28;20189;-59
2022/03/07 01:59:53;;;;;;;18.33;11.50;;;-3274.80;66.40;;;;;;6236389;28;20277;-59
2022/03/07 02:02:55;;;;;;;16.57;11.00;;;-3274.70;66.50;;;;;;6253326;28;20248;-59
2022/03/07 02:06:11;;;;;;;24.80;12.70;;;-3274.70;66.50;;;;;;6240404;28;20191;-59
2022/03/07 02:09:12;;;;;;;17.23;11.43;;;-3274.70;66.80;;;;;;6221269;28;20201;-60
2022/03/07 02:12:17;;;;;;;21.53;12.50;;;-3274.70;66.90;;;;;;6281251;28;20188;-60
2022/03/07 02:15:18;;;;;;;18.43;12.50;;;-3274.70;67.00;;;;;;6212386;28;20262;-60
2022/03/07 02:18:21;;;;;;;17.17;11.57;;;-3274.60;66.90;;;;;;6235873;28;20221;-58
2022/03/07 02:21:23;;;;;;;17.23;12.13;;;-3274.70;66.60;;;;;;6252539;28;20239;-60
2022/03/07 02:24:34;;;;;;;18.50;12.43;;;-3274.60;66.70;;;;;;6267409;28;20196;-60
2022/03/07 02:27:40;;;;;;;20.10;11.27;;;-3274.50;67.00;;;;;;6269473;28;20199;-59
2022/03/07 02:30:42;;;;;;;17.47;11.97;;;-3274.50;67.10;;;;;;6237349;28;20212;-60
2022/03/07 02:33:43;;;;;;;21.90;13.00;;;-3274.50;67.20;;;;;;6228859;28;20286;-59
2022/03/07 02:36:45;;;;;;;17.20;11.83;;;-3274.40;68.00;;;;;;6211745;28;20202;-59
2022/03/07 02:39:47;;;;;;;18.70;11.23;;;-3274.40;68.00;;;;;;6227169;28;20192;-59
2022/03/07 02:42:48;;;;;;;16.10;10.77;;;-3274.40;67.80;;;;;;6238833;28;20203;-58
2022/03/07 02:45:49;;;;;;;17.20;10.97;;;-3274.50;67.00;;;;;;6223304;28;20191;-59
2022/03/07 02:48:49;;;;;;;22.97;11.90;;;-3274.40;67.40;;;;;;6252198;28;20191;-59
2022/03/07 02:51:50;;;;;;;15.63;9.53;;;-3274.30;67.70;;;;;;6252152;28;20195;-59
2022/03/07 02:54:51;;;;;;;17.93;11.40;;;-3274.20;67.70;;;;;;6239007;28;20199;-59
2022/03/07 02:57:52;;;;;;;20.30;12.73;;;-3274.20;67.80;;;;;;6211037;28;20224;-59
2022/03/07 03:00:53;;;;;;;21.50;12.03;;;-3274.20;67.90;;;;;;6211643;28;20199;-60
2022/03/07 03:03:54;;;;;;;19.17;12.17;;;-3274.20;68.00;;;;;;6225143;28;20201;-60
2022/03/07 03:06:54;;;;;;;20.80;12.40;;;-3274.20;68.10;;;;;;6268055;28;20278;-61
2022/03/07 03:09:55;;;;;;;20.67;12.57;;;-3274.10;68.40;;;;;;6245219;28;20220;-57
2022/03/07 03:12:56;;;;;;;19.23;11.53;;;-3274.10;68.60;;;;;;6243231;28;20199;-59
2022/03/07 03:15:57;;;;;;;18.57;11.77;;;-3274.10;68.80;;;;;;6218174;28;20221;-59
2022/03/07 03:18:58;;;;;;;18.27;11.33;;;-3274.10;68.90;;;;;;6237105;28;20226;-60
2022/03/07 03:21:59;;;;;;;17.93;12.00;;;-3274.00;69.10;;;;;;6239420;28;20232;-60
2022/03/07 03:25:00;;;;;;;20.07;12.93;;;-3274.00;69.00;;;;;;6235014;28;20242;-60
2022/03/07 03:28:01;;;;;;;18.57;11.70;;;-3274.00;68.90;;;;;;6252977;28;20221;-60
2022/03/07 03:31:02;;;;;;;18.37;11.07;;;-3274.00;69.00;;;;;;6210675;28;20226;-59
2022/03/07 03:34:03;;;;;;;19.97;11.47;;;-3273.90;69.00;;;;;;6223922;28;20202;-59
2022/03/07 03:37:04;;;;;;;19.23;11.53;;;-3273.90;68.80;;;;;;6194104;28;20219;-59
2022/03/07 03:40:06;;;;;;;16.80;11.87;;;-3273.90;68.90;;;;;;6211723;28;20198;-60
2022/03/07 03:43:07;;;;;;;21.47;12.50;;;-3274.00;69.00;;;;;;6245633;28;20188;-59
2022/03/07 03:46:07;;;;;;;23.40;12.90;;;-3274.00;69.00;;;;;;6243001;28;20191;-59
2022/03/07 03:49:08;;;;;;;18.37;11.77;;;-3274.00;69.20;;;;;;6226559;28;20211;-59
2022/03/07 03:52:09;;;;;;;18.37;12.10;;;-3273.80;69.60;;;;;;6249214;28;20191;-59
2022/03/07 03:55:12;;;;;;;20.37;12.70;;;-3273.90;69.70;;;;;;6217829;28;20556;-59
2022/03/07 03:58:13;;;;;;;22.93;12.60;;;-3273.80;69.80;;;;;;6234039;28;20566;-59
2022/03/07 04:01:13;;;;;;;19.30;12.10;;;-3273.80;69.80;;;;;;6268021;28;20187;-58
2022/03/07 04:04:15;;;;;;;19.50;11.83;;;-3273.70;69.60;;;;;;6234074;28;20191;-59
2022/03/07 04:07:15;;;;;;;16.77;11.60;;;-3273.70;69.60;;;;;;6255029;28;20195;-59
2022/03/07 04:10:16;;;;;;;20.83;13.37;;;-3273.80;69.70;;;;;;6238576;28;20219;-59
2022/03/07 04:13:17;;;;;;;23.07;14.90;;;-3273.70;70.00;;;;;;6225859;28;20253;-59
2022/03/07 04:16:18;;;;;;;22.53;13.80;;;-3273.60;70.30;;;;;;6226208;28;20203;-59
2022/03/07 04:19:19;;;;;;;25.93;14.37;;;-3273.50;70.50;;;;;;6225683;28;20277;-59
2022/03/07 04:22:19;;;;;;;25.10;14.47;;;-3273.60;70.70;;;;;;6238823;28;20200;-59
2022/03/07 04:25:20;;;;;;;23.57;14.33;;;-3273.50;70.80;;;;;;6242914;28;20196;-59
2022/03/07 04:28:21;;;;;;;22.27;14.10;;;-3273.60;70.70;;;;;;6217566;28;20197;-59
2022/03/07 04:31:22;;;;;;;25.20;13.63;;;-3273.50;70.70;;;;;;6233532;28;20229;-58
2022/03/07 04:34:24;;;;;;;18.87;12.93;;;-3273.60;70.70;;;;;;6233452;28;20281;-58
2022/03/07 04:37:25;;;;;;;20.73;13.47;;;-3273.60;70.50;;;;;;6233114;28;20214;-59
2022/03/07 04:40:25;;;;;;;20.20;12.47;;;-3273.50;70.20;;;;;;6211479;28;20195;-58
2022/03/07 04:43:26;;;;;;;23.70;14.13;;;-3273.50;70.30;;;;;;6238408;28;20198;-59
2022/03/07 04:46:28;;;;;;;20.77;13.80;;;-3273.50;70.30;;;;;;6224744;28;20200;-59
2022/03/07 04:49:28;;;;;;;21.80;12.43;;;-3273.30;70.80;;;;;;6225431;28;20191;-59
2022/03/07 04:52:29;;;;;;;21.67;13.53;;;-3273.40;71.10;;;;;;6226542;28;20190;-60
2022/03/07 04:55:30;;;;;;;24.13;12.47;;;-3273.30;71.20;;;;;;6262136;28;20282;-59
2022/03/07 04:58:31;;;;;;;19.80;12.73;;;-3273.30;71.10;;;;;;6248788;28;20214;-58
2022/03/07 05:01:32;;;;;;;20.30;12.97;;;-3273.30;71.10;;;;;;6265998;28;20222;-59
2022/03/07 05:04:32;;;;;;;20.37;12.97;;;-3273.30;71.10;;;;;;6246044;28;20214;-60
2022/03/07 05:07:33;;;;;;;23.87;14.77;;;-3273.30;71.00;;;;;;6241173;28;20195;-59
2022/03/07 05:10:34;;;;;;;23.87;15.13;;;-3273.20;71.30;;;;;;6225599;28;20196;-60
2022/03/07 05:13:35;;;;;;;25.87;13.93;;;-3273.30;71.20;;;;;;6241903;28;20201;-59
2022/03/07 05:16:35;;;;;;;21.13;13.53;;;-3273.30;71.20;;;;;;6244744;28;20234;-59
2022/03/07 05:19:37;;;;;;;21.50;12.63;;;-3273.30;71.10;;;;;;6228012;28;20240;-59
2022/03/07 05:22:38;;;;;;;22.23;13.20;;;-3273.30;71.10;;;;;;6218409;28;20282;-60
2022/03/07 05:25:39;;;;;;;20.97;11.87;;;-3273.30;71.00;;;;;;6220138;28;20196;-59
2022/03/07 05:28:40;;;;;;;24.23;13.13;;;-3273.20;71.30;;;;;;6220910;28;20202;-60
2022/03/07 05:31:41;;;;;;;18.17;12.80;;;-3273.20;71.30;;;;;;6231903;28;20220;-58
2022/03/07 05:34:41;;;;;;;23.20;13.57;;;-3273.20;71.60;;;;;;6237509;28;20254;-59
2022/03/07 05:37:42;;;;;;;23.00;12.77;;;-3273.20;71.90;;;;;;6237411;28;20310;-59
2022/03/07 05:40:43;;;;;;;20.23;12.50;;;-3273.20;71.80;;;;;;6223958;28;20201;-59
2022/03/07 05:43:44;;;;;;;22.57;12.90;;;-3273.20;72.30;;;;;;6208139;28;20192;-59
2022/03/07 05:46:45;;;;;;;22.73;13.80;;;-3273.20;71.60;;;;;;6255824;28;20192;-58
2022/03/07 05:49:45;;;;;;;18.70;12.27;;;-3273.20;71.80;;;;;;6265230;28;20191;-58
2022/03/07 05:52:46;;;;;;;22.00;13.87;;;-3273.20;71.80;;;;;;6246583;28;20195;-59
2022/03/07 05:55:49;;;;;;;23.97;12.27;;;-3273.20;71.70;;;;;;6213608;28;20192;-59
2022/03/07 05:58:50;;;;;;;21.43;13.43;;;-3273.20;71.80;;;;;;6215715;28;20216;-59
2022/03/07 06:01:50;;;;;;;19.13;12.53;;;-3273.20;71.80;;;;;;6231582;28;20196;-59
2022/03/07 06:04:52;;;;;;;20.57;11.93;;;-3273.30;71.60;;;;;;6235544;28;20196;-59
2022/03/07 06:07:52;;;;;;;18.67;12.43;;;-3273.20;71.60;;;;;;6229066;28;20219;-60
2022/03/07 06:10:53;;;;;;;19.40;12.30;;;-3273.30;71.70;;;;;;6231857;28;20638;-58
2022/03/07 06:13:54;;;;;;;20.10;12.47;;;-3273.50;71.00;;;;;;6241430;28;20191;-57
2022/03/07 06:16:55;;;;;;;18.43;13.30;;;-3273.40;71.40;;;;;;6240464;28;20202;-59
2022/03/07 06:19:56;;;;;;;17.07;11.53;;;-3273.40;71.40;;;;;;6232932;28;20384;-57
2022/03/07 06:22:57;;;;;;;18.00;11.23;;;-3273.40;71.60;;;;;;6222070;28;20197;-55
2022/03/07 06:25:58;;;;;;;21.97;13.70;;;-3273.50;71.70;;;;;;6247774;28;20194;-54
2022/03/07 06:29:00;;;;;;;22.53;11.93;;;-3273.50;71.40;;;;;;6211755;28;20231;-56
2022/03/07 06:32:01;;;;;;;21.23;12.37;;;-3273.50;71.50;;;;;;6248302;28;20184;-56
2022/03/07 06:35:04;;;;;;;22.63;11.97;;;-3273.50;71.40;;;;;;6247781;28;20187;-54
2022/03/07 06:38:05;;;;;;;18.73;12.67;;;-3273.60;71.50;;;;;;6246265;28;20198;-56
2022/03/07 06:41:07;;;;;;;22.87;12.70;;;-3273.70;71.30;;;;;;6224242;28;20191;-57
2022/03/07 06:44:08;;;;;;;17.93;12.03;;;-3273.70;71.10;;;;;;6244918;28;20195;-55
2022/03/07 06:47:08;;;;;;;20.80;13.43;;;-3273.80;70.90;;;;;;6252119;28;20214;-51
2022/03/07 06:50:10;;;;;;;21.73;12.93;;;-3273.80;71.20;;;;;;6243735;28;20199;-56
2022/03/07 06:53:11;;;;;;;20.27;12.87;;;-3273.80;70.90;;;;;;6260193;28;20193;-55
2022/03/07 06:56:12;;;;;;;23.20;14.23;;;-3273.90;70.80;;;;;;6221071;28;20187;-53
2022/03/07 06:59:12;;;;;;;20.83;13.40;;;-3274.00;70.60;;;;;;6247724;28;20195;-54
2022/03/07 07:02:13;;;;;;;21.60;13.13;;;-3274.10;70.10;;;;;;6236286;28;20207;-55
2022/03/07 07:05:15;;;;;;;23.73;12.17;;;-3274.10;70.00;;;;;;6246476;28;20253;-57
2022/03/07 07:08:16;;;;;;;19.00;12.73;;;-3274.20;70.40;;;;;;6219981;28;20223;-58
2022/03/07 07:11:17;;;;;;;22.40;13.83;;;-3274.30;70.00;;;;;;6244977;28;20198;-57
2022/03/07 07:14:18;;;;;;;23.17;13.93;;;-3274.40;69.20;;;;;;6234623;28;20195;-56
2022/03/07 07:17:18;;;;;;;20.07;12.60;;;-3274.50;68.90;;;;;;6235830;28;20200;-56
2022/03/07 07:20:19;;;;;;;21.67;13.07;;;-3274.50;69.10;;;;;;6240842;28;20325;-55
2022/03/07 07:23:21;;;;;;;22.30;13.60;;;-3274.60;68.70;;;;;;6249911;28;20289;-55
2022/03/07 07:26:22;;;;;;;23.23;13.90;;;-3274.70;68.40;;;;;;6258566;28;20207;-57
2022/03/07 07:29:23;;;;;;;30.03;15.17;;;-3274.80;67.80;;;;;;6243095;28;20221;-57
2022/03/07 07:32:24;;;;;;;20.10;13.20;;;-3275.00;67.90;;;;;;6249072;28;20196;-56
2022/03/07 07:35:25;;;;;;;25.50;14.83;;;-3275.00;68.00;;;;;;6230393;28;20198;-58
2022/03/07 07:38:26;;;;;;;20.90;13.33;;;-3275.10;67.20;;;;;;6227778;28;20218;-52
2022/03/07 07:41:27;;;;;;;24.73;14.37;;;-3275.20;67.00;;;;;;6250846;28;20195;-58
2022/03/07 07:44:28;;;;;;;21.50;13.43;;;-3275.20;66.90;;;;;;6244366;28;20203;-58
2022/03/07 07:47:29;;;;;;;24.70;15.70;;;-3275.30;66.50;;;;;;6247041;28;20226;-56
2022/03/07 07:50:30;;;;;;;22.93;13.47;;;-3275.50;65.70;;;;;;6237093;28;20662;-55
2022/03/07 07:53:32;;;;;;;19.10;13.10;;;-3275.50;65.80;;;;;;6246575;28;20287;-55
2022/03/07 07:56:32;;;;;;;22.57;12.27;;;-3275.60;65.60;;;;;;6233232;28;20199;-55
2022/03/07 07:59:34;;;;;;;21.03;13.57;;;-3275.70;65.40;;;;;;6234988;28;20206;-52
2022/03/07 08:02:35;;;;;;;23.33;14.53;;;-3276.00;63.90;;;;;;6239153;28;20192;-55
2022/03/07 08:05:36;;;;;;;22.43;14.43;;;-3276.20;61.80;;;;;;6237230;28;20251;-54
2022/03/07 08:08:37;;;;;;;25.30;15.80;;;-3276.30;60.80;;;;;;6230445;28;20215;-56
2022/03/07 08:11:38;;;;;;;24.37;15.10;;;-3276.30;61.00;;;;;;6230923;28;20222;-55
2022/03/07 08:14:38;;;;;;;22.43;14.33;;;-3276.30;60.40;;;;;;6229349;28;20194;-53
2022/03/07 08:17:46;;;;;;;26.00;15.87;;;-3276.40;60.00;;;;;;6205599;28;20199;-55
2022/03/07 08:20:47;;;;;;;23.53;15.23;;;-3276.60;60.80;;;;;;6231022;28;20777;-52
2022/03/07 08:23:48;;;;;;;21.93;13.37;;;-3276.60;60.40;;;;;;6226941;28;20198;-54
2022/03/07 08:26:49;;;;;;;27.10;16.73;;;-3276.70;60.50;;;;;;6217298;28;20239;-54
2022/03/07 08:29:49;;;;;;;23.23;15.50;;;0.10;58.60;;;;;;6230834;28;20246;-53
2022/03/07 08:32:51;;;;;;;21.10;14.33;;;0.10;58.40;;;;;;6230802;28;20284;-54
2022/03/07 08:35:55;;;;;;;25.23;15.93;;;0.20;58.00;;;;;;6237470;28;20188;-54
2022/03/07 08:38:56;;;;;;;22.17;14.10;;;0.40;57.60;;;;;;6235562;28;20205;-53
2022/03/07 08:41:56;;;;;;;26.70;15.13;;;0.60;56.10;;;;;;6225073;28;20206;-53
2022/03/07 08:44:57;;;;;;;25.00;15.97;;;0.60;57.00;;;;;;6224866;28;20199;-53
2022/03/07 08:47:58;;;;;;;23.67;14.70;;;0.60;56.70;;;;;;6222001;28;20249;-54
2022/03/07 08:50:59;;;;;;;21.93;15.60;;;1.00;55.30;;;;;;6223998;28;20200;-52
2022/03/07 08:54:00;;;;;;;22.13;15.43;;;1.00;54.40;;;;;;6235472;28;20270;-53
2022/03/07 08:57:02;;;;;;;21.80;14.73;;;1.10;54.20;;;;;;6268732;28;20198;-54
2022/03/07 09:00:06;;;;;;;21.93;14.33;;;1.30;53.00;;;;;;6240943;28;20197;-55
2022/03/07 09:03:07;;;;;;;26.93;15.27;;;1.40;52.50;;;;;;6247705;28;20215;-55
2022/03/07 09:06:08;;;;;;;23.40;15.70;;;1.40;52.50;;;;;;6240182;28;20194;-54
2022/03/07 09:09:09;;;;;;;26.60;15.93;;;1.60;52.80;;;;;;6254376;28;20308;-54
2022/03/07 09:12:10;;;;;;;24.90;15.40;;;1.50;52.80;;;;;;6234354;28;20291;-51
2022/03/07 09:15:11;;;;;;;26.60;16.27;;;1.70;52.00;;;;;;6240381;28;20675;-50
2022/03/07 09:18:15;;;;;;;23.60;15.37;;;1.80;51.90;;;;;;6264307;28;20202;-53
2022/03/07 09:21:16;;;;;;;23.33;15.20;;;1.80;51.50;;;;;;6231819;28;20231;-53
2022/03/07 09:24:17;;;;;;;25.77;15.40;;;1.80;52.60;;;;;;6206365;28;20201;-52
2022/03/07 09:27:19;;;;;;;22.23;13.90;;;2.10;51.70;;;;;;6240397;28;20218;-51
2022/03/07 09:30:20;;;;;;;24.47;15.47;;;2.30;49.80;;;;;;6214360;28;20194;-54
2022/03/07 09:33:20;;;;;;;22.00;15.63;;;2.30;49.80;;;;;;6257027;28;20283;-51
2022/03/07 09:36:21;;;;;;;22.23;15.60;;;2.60;48.90;;;;;;6234801;28;20193;-52
2022/03/07 09:39:22;;;;;;;22.87;14.67;;;3.00;47.90;;;;;;6206672;28;20228;-49
2022/03/07 09:42:23;;;;;;;26.17;16.43;;;2.90;47.70;;;;;;6242543;28;20301;-57
2022/03/07 09:45:23;;;;;;;22.37;13.77;;;3.00;49.70;;;;;;6230654;28;20261;-54
2022/03/07 09:48:25;;;;;;;23.63;15.27;;;3.30;49.30;;;;;;6241018;28;20665;-55
2022/03/07 09:51:26;;;;;;;23.80;15.20;;;3.80;47.70;;;;;;6229634;28;20246;-53
2022/03/07 09:54:27;;;;;;;25.83;14.97;;;3.90;45.30;;;;;;6239684;28;20285;-55
2022/03/07 09:57:29;;;;;;;24.90;15.10;;;3.80;46.20;;;;;;6236733;28;20258;-55
2022/03/07 10:00:30;;;;;;;24.50;15.90;;;3.90;45.50;;;;;;6233515;28;20197;-52
2022/03/07 10:03:31;;;;;;;23.37;14.70;;;3.90;45.60;;;;;;6217811;28;20189;-54
2022/03/07 10:06:32;;;;;;;21.13;14.83;;;3.90;46.60;;;;;;6218084;28;20209;-53
2022/03/07 10:09:33;;;;;;;21.60;14.10;;;4.10;45.90;;;;;;6235074;28;20228;-54
2022/03/07 10:12:33;;;;;;;22.90;14.73;;;4.30;46.20;;;;;;6235742;28;20217;-55
2022/03/07 10:15:35;;;;;;;22.37;15.00;;;4.30;45.40;;;;;;6254657;28;20246;-55
2022/03/07 10:18:36;;;;;;;20.93;13.90;;;4.80;44.20;;;;;;6207981;28;20203;-54
2022/03/07 10:21:45;;;;;;;23.73;15.63;;;4.80;43.10;;;;;;6239993;28;20312;-62
2022/03/07 10:24:46;;;;;;;19.87;14.07;;;5.20;41.80;;;;;;6237094;28;20202;-62
2022/03/07 10:27:49;;;;;;;23.53;14.70;;;5.10;41.20;;;;;;6234755;28;20218;-62
2022/03/07 10:30:50;;;;;;;24.30;14.20;;;5.00;42.30;;;;;;6241674;28;20194;-61
2022/03/07 10:34:11;;;;;;;19.60;14.47;;;5.20;42.90;;;;;;6252195;28;20324;-61
2022/03/07 10:37:12;;;;;;;23.33;15.03;;;5.20;42.80;;;;;;6220537;28;20195;-62
2022/03/07 10:40:21;;;;;;;22.47;14.90;;;4.90;42.20;;;;;;6235905;28;20198;-61
2022/03/07 10:43:23;;;;;;;17.50;12.90;;;5.10;42.10;;;;;;6251165;28;20198;-60
2022/03/07 10:46:26;;;;;;;20.00;14.23;;;5.20;42.00;;;;;;6231364;28;20191;-63
2022/03/07 10:49:27;;;;;;;19.97;14.37;;;5.40;40.40;;;;;;6222254;28;20223;-61
2022/03/07 10:52:37;;;;;;;18.97;13.87;;;5.30;41.40;;;;;;6232594;28;20199;-61
2022/03/07 10:55:38;;;;;;;18.50;12.97;;;5.40;39.70;;;;;;6253075;28;20187;-61
2022/03/07 10:58:47;;;;;;;23.60;14.80;;;5.30;40.80;;;;;;6254613;28;20234;-61
2022/03/07 11:01:58;;;;;;;20.47;14.30;;;5.70;39.80;;;;;;6218735;28;20216;-62
2022/03/07 11:04:59;;;;;;;21.97;14.17;;;5.60;39.80;;;;;;6238523;28;20206;-62
2022/03/07 11:08:00;;;;;;;17.73;12.73;;;5.80;40.40;;;;;;6239049;28;20233;-62
2022/03/07 11:11:01;;;;;;;17.83;13.30;;;6.20;40.10;;;;;;6233511;28;20187;-61
2022/03/07 11:14:02;;;;;;;19.73;13.03;;;6.50;38.90;;;;;;6237226;28;20206;-62
2022/03/07 11:17:05;;;;;;;19.43;13.63;;;6.60;38.90;;;;;;6240310;28;20276;-62
2022/03/07 11:20:07;;;;;;;19.73;13.87;;;6.20;39.50;;;;;;6217214;28;20230;-63
2022/03/07 11:23:11;;;;;;;18.57;12.63;;;6.50;38.60;;;;;;6240791;28;20198;-62
2022/03/07 11:26:12;;;;;;;17.33;12.97;;;6.70;37.80;;;;;;6225131;28;20226;-62
2022/03/07 11:29:12;;;;;;;16.90;12.87;;;6.90;38.70;;;;;;6251353;28;20218;-62
2022/03/07 11:32:14;;;;;;;17.20;12.83;;;7.00;37.10;;;;;;6248374;28;20202;-63
2022/03/07 11:35:15;;;;;;;17.57;13.80;;;7.30;36.10;;;;;;6240758;28;20320;-62
2022/03/07 11:38:19;;;;;;;19.63;13.50;;;7.10;37.20;;;;;;6266740;28;20194;-62
2022/03/07 11:41:29;;;;;;;16.83;13.03;;;6.90;36.10;;;;;;6267635;28;20281;-62
2022/03/07 11:44:30;;;;;;;20.83;14.40;;;7.10;37.30;;;;;;6234717;28;20310;-62
2022/03/07 11:47:36;;;;;;;18.83;14.00;;;7.00;37.00;;;;;;6243542;28;20209;-61
2022/03/07 11:50:37;;;;;;;19.37;13.93;;;7.10;41.60;;;;;;6232449;28;20195;-61
2022/03/07 11:53:47;;;;;;;17.60;13.73;;;7.20;38.40;;;;;;6225962;28;20213;-61
2022/03/07 11:56:48;;;;;;;17.30;13.90;;;7.30;38.70;;;;;;6221147;28;20195;-61
2022/03/07 11:59:49;;;;;;;20.47;14.67;;;7.50;39.20;;;;;;6261680;28;20285;-62
2022/03/07 12:02:57;;;;;;;21.07;14.50;;;7.80;35.50;;;;;;6257865;28;20201;-62
2022/03/07 12:06:09;;;;;;;15.20;12.60;;;8.00;36.90;;;;;;6228083;28;20226;-62
2022/03/07 12:09:10;;;;;;;18.67;13.23;;;8.40;34.50;;;;;;6241669;28;20215;-62
2022/03/07 12:12:15;;;;;;;17.20;13.43;;;8.30;36.10;;;;;;6241709;28;20201;-62
2022/03/07 12:15:16;;;;;;;17.13;13.17;;;8.80;34.70;;;;;;6247608;28;20198;-62
2022/03/07 12:18:18;;;;;;;15.67;13.30;;;8.90;33.60;;;;;;6225027;28;20527;-62
2022/03/07 12:21:25;;;;;;;17.37;12.87;;;8.80;33.90;;;;;;6248646;28;20313;-60
2022/03/07 12:24:26;;;;;;;21.30;13.97;;;8.90;33.70;;;;;;6228889;28;20240;-59
2022/03/07 12:27:27;;;;;;;17.90;14.43;;;9.10;32.30;;;;;;6209351;28;20636;-60
2022/03/07 12:30:28;;;;;;;18.40;14.37;;;8.90;33.50;;;;;;6252236;28;20637;-60
2022/03/07 12:33:29;;;;;;;18.43;13.73;;;9.00;34.60;;;;;;6243265;28;20190;-60
2022/03/07 12:36:30;;;;;;;17.87;14.37;;;9.50;32.20;;;;;;6241877;28;20198;-60
2022/03/07 12:39:44;;;;;;;16.87;13.60;;;11.10;30.80;;;;;;6232235;28;20201;-59
2022/03/07 12:42:45;;;;;;;17.07;14.03;;;12.60;27.10;;;;;;6248586;28;20194;-61
2022/03/07 12:45:47;;;;;;;17.13;13.23;;;14.40;25.70;;;;;;6249660;28;20218;-60
2022/03/07 12:48:48;;;;;;;16.57;13.73;;;16.80;23.10;;;;;;6250471;28;20234;-60
2022/03/07 12:51:48;;;;;;;18.07;15.10;;;19.10;20.90;;;;;;6241524;28;20278;-60
2022/03/07 12:54:49;;;;;;;15.77;13.63;;;19.70;20.60;;;;;;6239246;28;20244;-61
2022/03/07 12:57:58;;;;;;;15.23;13.63;;;20.70;19.50;;;;;;6266232;28;20190;-62
2022/03/07 13:01:02;;;;;;;16.73;15.00;;;22.60;17.40;;;;;;6217719;28;20195;-62
2022/03/07 13:04:03;;;;;;;15.73;14.07;;;22.60;17.40;;;;;;6254457;28;20206;-62
2022/03/07 13:07:11;;;;;;;14.97;13.37;;;22.80;17.10;;;;;;6232573;28;20267;-62
2022/03/07 13:10:12;;;;;;;16.00;13.97;;;22.20;17.20;;;;;;6251173;28;20191;-62
2022/03/07 13:13:14;;;;;;;16.40;14.70;;;20.20;18.00;;;;;;6234567;28;20196;-62
2022/03/07 13:16:29;;;;;;;16.87;14.37;;;21.80;17.30;;;;;;6244735;28;20191;-62
2022/03/07 13:19:30;;;;;;;17.03;14.30;;;22.40;16.70;;;;;;6217549;28;20196;-62
2022/03/07 13:22:31;;;;;;;16.33;14.67;;;22.30;16.80;;;;;;6233740;28;20199;-63
2022/03/07 13:25:50;;;;;;;15.87;14.33;;;21.00;16.60;;;;;;6247922;28;20224;-62
2022/03/07 13:29:14;;;;;;;15.97;14.47;;;21.10;17.00;;;;;;6274500;28;20221;-63
2022/03/07 13:32:19;;;;;;;15.70;14.17;;;21.90;16.80;;;;;;6254357;28;20211;-62
2022/03/07 13:35:25;;;;;;;16.57;14.93;;;21.30;16.80;;;;;;6238983;28;20206;-63
2022/03/07 13:38:26;;;;;;;15.57;14.07;;;21.60;16.10;;;;;;6210419;28;20180;-64
2022/03/07 13:41:26;;;;;;;15.50;14.03;;;20.70;17.00;;;;;;6216136;28;20198;-65
2022/03/07 13:44:29;;;;;;;14.57;13.07;;;20.50;17.30;;;;;;6248711;28;20248;-66
2022/03/07 13:47:32;;;;;;;14.23;12.73;;;21.30;16.60;;;;;;6244427;28;20218;-61
2022/03/07 13:50:33;;;;;;;10.67;9.67;;;21.90;17.00;;;;;;6263950;28;20191;-59
2022/03/07 13:53:34;;;;;;;9.00;8.27;;;23.50;14.60;;;;;;6239612;28;20201;-59
2022/03/07 13:56:35;;;;;;;9.47;8.57;;;23.20;13.30;;;;;;6247921;28;20269;-62
2022/03/07 13:59:35;;;;;;;10.33;9.43;;;22.10;13.20;;;;;;6244351;28;20186;-62
2022/03/07 14:02:38;;;;;;;9.27;8.50;;;22.10;13.70;;;;;;6253502;28;20194;-61
2022/03/07 14:05:52;;;;;;;10.30;9.40;;;20.90;14.50;;;;;;6242064;28;20179;-61
2022/03/07 14:08:53;;;;;;;10.90;8.97;;;19.30;14.80;;;;;;6247934;28;20196;-62
2022/03/07 14:11:59;;;;;;;9.87;8.97;;;18.70;15.70;;;;;;6247024;28;20206;-61
2022/03/07 14:15:06;;;;;;;9.80;8.90;;;19.90;14.50;;;;;;6245227;28;20225;-63
2022/03/07 14:18:09;;;;;;;9.77;8.93;;;20.20;14.20;;;;;;6247520;28;20244;-63
2022/03/07 14:21:10;;;;;;;10.03;9.13;;;21.00;14.50;;;;;;6254754;28;20257;-61
2022/03/07 14:24:11;;;;;;;9.60;8.80;;;19.60;15.40;;;;;;6256706;28;20186;-62
2022/03/07 14:27:15;;;;;;;10.67;9.57;;;20.70;14.00;;;;;;6247147;28;20290;-61
2022/03/07 14:30:16;;;;;;;9.53;8.57;;;19.70;14.60;;;;;;6223433;28;20290;-62
2022/03/07 14:33:17;;;;;;;10.20;9.10;;;19.90;14.60;;;;;;6240703;28;20190;-61
2022/03/07 14:36:18;;;;;;;10.10;9.13;;;19.30;15.30;;;;;;6223731;28;20192;-61
2022/03/07 14:39:18;;;;;;;10.67;9.50;;;20.30;15.40;;;;;;6231945;28;20257;-61
2022/03/07 14:42:20;;;;;;;11.47;9.27;;;20.00;15.00;;;;;;6224195;28;20187;-62
2022/03/07 14:45:23;;;;;;;9.90;8.90;;;17.80;16.10;;;;;;6232978;28;20194;-61
2022/03/07 14:48:24;;;;;;;9.27;8.37;;;17.90;16.60;;;;;;6253920;28;20223;-60
2022/03/07 14:51:26;;;;;;;9.97;9.10;;;19.20;15.70;;;;;;6233198;28;20191;-62
2022/03/07 14:54:27;;;;;;;10.80;9.53;;;19.00;16.00;;;;;;6233988;28;20199;-62
2022/03/07 14:57:28;;;;;;;9.37;8.47;;;17.60;16.40;;;;;;6240850;28;20230;-62
2022/03/07 15:00:28;;;;;;;11.43;9.10;;;17.30;16.80;;;;;;6225305;28;20215;-63
2022/03/07 15:03:29;;;;;;;9.37;8.40;;;17.50;16.80;;;;;;6239867;28;20196;-62
2022/03/07 15:06:32;;;;;;;9.43;8.53;;;17.60;16.90;;;;;;6214889;28;20203;-62
2022/03/07 15:09:33;;;;;;;9.57;8.67;;;17.00;16.90;;;;;;6229207;28;20199;-63